EZY567K EGGP-EGAC
Flight info
| Callsign | EZY567K |
|---|---|
| Flight time | 0h 33m |
| Altitude | 20000 |
| Route | WAL M146 ERDUV Z198 MASOP M148 MAGEE |
| Aircraft | A319/M-SDE2E3FGIJ1RWXYZ/LB1 |
Departure
| Time | 2026-04-20 20:45 |
|---|---|
| Airport | Liverpool John Lennon Airport (EGGP) |
Arrival
| Time | 2026-04-20 21:18 |
|---|---|
| Airport | George Best Belfast City Airport (EGAC) |
| Time | Latitude | Longitude | Altitude | Speed | Heading |
|---|---|---|---|---|---|
| 2026-04-20 20:22 | 53.33587 | -2.85193 | 86 ft | 0 kts | 266° |
| 2026-04-20 20:25 | 53.33587 | -2.85192 | 86 ft | 0 kts | 266° |
| 2026-04-20 20:38 | 53.33588 | -2.85174 | 89 ft | 4 kts | 266° |
| 2026-04-20 20:38 | 53.33590 | -2.85129 | 85 ft | 4 kts | 266° |
| 2026-04-20 20:39 | 53.33592 | -2.85094 | 87 ft | 4 kts | 249° |
| 2026-04-20 20:39 | 53.33606 | -2.85069 | 88 ft | 4 kts | 182° |
| 2026-04-20 20:39 | 53.33630 | -2.85071 | 85 ft | 2 kts | 175° |
| 2026-04-20 20:39 | 53.33632 | -2.85071 | 85 ft | 1 kts | 175° |
| 2026-04-20 20:42 | 53.33618 | -2.85069 | 85 ft | 8 kts | 175° |
| 2026-04-20 20:42 | 53.33535 | -2.85075 | 85 ft | 12 kts | 214° |
| 2026-04-20 20:42 | 53.33517 | -2.85218 | 84 ft | 13 kts | 266° |
| 2026-04-20 20:42 | 53.33511 | -2.85373 | 84 ft | 14 kts | 266° |
| 2026-04-20 20:43 | 53.33504 | -2.85537 | 84 ft | 14 kts | 266° |
| 2026-04-20 20:43 | 53.33496 | -2.85706 | 88 ft | 15 kts | 265° |
| 2026-04-20 20:43 | 53.33488 | -2.85885 | 84 ft | 16 kts | 265° |
| 2026-04-20 20:43 | 53.33479 | -2.86073 | 84 ft | 17 kts | 265° |
| 2026-04-20 20:44 | 53.33469 | -2.86269 | 87 ft | 17 kts | 265° |
| 2026-04-20 20:44 | 53.33431 | -2.86425 | 82 ft | 14 kts | 201° |
| 2026-04-20 20:44 | 53.33317 | -2.86415 | 74 ft | 9 kts | 175° |
| 2026-04-20 20:44 | 53.33301 | -2.86334 | 73 ft | 10 kts | 85° |
| 2026-04-20 20:45 | 53.33320 | -2.85943 | 77 ft | 71 kts | 85° |
| 2026-04-20 20:45 | 53.33375 | -2.84708 | 86 ft | 138 kts | 85° |
| 2026-04-20 20:45 | 53.33463 | -2.83150 | 728 ft | 134 kts | 84° |
| 2026-04-20 20:45 | 53.33553 | -2.81505 | 1231 ft | 152 kts | 86° |
| 2026-04-20 20:46 | 53.33676 | -2.79621 | 1632 ft | 175 kts | 81° |
| 2026-04-20 20:46 | 53.34122 | -2.77559 | 2020 ft | 203 kts | 65° |
| 2026-04-20 20:46 | 53.35056 | -2.75562 | 2548 ft | 234 kts | 45° |
| 2026-04-20 20:46 | 53.36498 | -2.74102 | 3261 ft | 255 kts | 22° |
| 2026-04-20 20:47 | 53.38281 | -2.73651 | 4240 ft | 266 kts | 359° |
| 2026-04-20 20:47 | 53.40065 | -2.74520 | 5297 ft | 272 kts | 330° |
| 2026-04-20 20:47 | 53.41440 | -2.76685 | 6374 ft | 276 kts | 303° |
| 2026-04-20 20:47 | 53.42306 | -2.79570 | 7447 ft | 277 kts | 296° |
| 2026-04-20 20:48 | 53.43117 | -2.82495 | 8417 ft | 281 kts | 296° |
| 2026-04-20 20:48 | 53.43945 | -2.85497 | 9336 ft | 286 kts | 297° |
| 2026-04-20 20:48 | 53.44790 | -2.88573 | 10267 ft | 292 kts | 297° |
| 2026-04-20 20:48 | 53.45674 | -2.91764 | 10777 ft | 312 kts | 297° |
| 2026-04-20 20:49 | 53.46623 | -2.95165 | 11313 ft | 327 kts | 297° |
| 2026-04-20 20:49 | 53.47592 | -2.98647 | 12149 ft | 331 kts | 297° |
| 2026-04-20 20:49 | 53.48561 | -3.02128 | 13054 ft | 334 kts | 296° |
| 2026-04-20 20:49 | 53.49548 | -3.05677 | 13953 ft | 337 kts | 296° |
| 2026-04-20 20:50 | 53.50540 | -3.09267 | 14740 ft | 340 kts | 296° |
| 2026-04-20 20:50 | 53.51538 | -3.12883 | 15505 ft | 343 kts | 295° |
| 2026-04-20 20:50 | 53.52545 | -3.16551 | 16277 ft | 346 kts | 296° |
| 2026-04-20 20:50 | 53.53555 | -3.20239 | 17016 ft | 349 kts | 296° |
| 2026-04-20 20:51 | 53.54576 | -3.23966 | 17766 ft | 352 kts | 296° |
| 2026-04-20 20:51 | 53.55607 | -3.27733 | 18496 ft | 356 kts | 295° |
| 2026-04-20 20:51 | 53.56644 | -3.31530 | 19160 ft | 358 kts | 295° |
| 2026-04-20 20:51 | 53.57679 | -3.35319 | 19800 ft | 361 kts | 295° |
| 2026-04-20 20:52 | 53.58734 | -3.39185 | 20210 ft | 363 kts | 295° |
| 2026-04-20 20:52 | 53.59787 | -3.43047 | 20308 ft | 356 kts | 295° |
| 2026-04-20 20:52 | 53.60782 | -3.46707 | 20328 ft | 341 kts | 295° |
| 2026-04-20 20:52 | 53.61770 | -3.50351 | 20329 ft | 335 kts | 295° |
| 2026-04-20 20:53 | 53.62730 | -3.53907 | 20327 ft | 332 kts | 295° |
| 2026-04-20 20:53 | 53.63674 | -3.57407 | 20327 ft | 333 kts | 295° |
| 2026-04-20 20:53 | 53.64633 | -3.60957 | 20325 ft | 333 kts | 296° |
| 2026-04-20 20:53 | 53.65825 | -3.64307 | 20324 ft | 333 kts | 306° |
| 2026-04-20 20:54 | 53.67170 | -3.67495 | 20324 ft | 333 kts | 306° |
| 2026-04-20 20:54 | 53.68508 | -3.70682 | 20335 ft | 332 kts | 305° |
| 2026-04-20 20:54 | 53.69845 | -3.73881 | 20328 ft | 333 kts | 305° |
| 2026-04-20 20:54 | 53.71182 | -3.77088 | 20324 ft | 334 kts | 305° |
| 2026-04-20 20:55 | 53.72505 | -3.80266 | 20325 ft | 334 kts | 305° |
| 2026-04-20 20:55 | 53.73850 | -3.83497 | 20325 ft | 335 kts | 305° |
| 2026-04-20 20:55 | 53.75192 | -3.86726 | 20326 ft | 335 kts | 305° |
| 2026-04-20 20:55 | 53.76515 | -3.89920 | 20334 ft | 334 kts | 305° |
| 2026-04-20 20:56 | 53.77850 | -3.93143 | 20343 ft | 333 kts | 305° |
| 2026-04-20 20:56 | 53.79183 | -3.96365 | 20353 ft | 333 kts | 305° |
| 2026-04-20 20:56 | 53.80509 | -3.99578 | 20345 ft | 332 kts | 305° |
| 2026-04-20 20:56 | 53.81836 | -4.02793 | 20344 ft | 332 kts | 305° |
| 2026-04-20 20:57 | 53.83147 | -4.05968 | 20335 ft | 333 kts | 305° |
| 2026-04-20 20:57 | 53.84472 | -4.09188 | 20338 ft | 333 kts | 305° |
| 2026-04-20 20:57 | 53.85798 | -4.12419 | 20335 ft | 333 kts | 305° |
| 2026-04-20 20:57 | 53.87121 | -4.15655 | 20337 ft | 333 kts | 305° |
| 2026-04-20 20:58 | 53.88272 | -4.19042 | 20347 ft | 332 kts | 297° |
| 2026-04-20 20:58 | 53.89305 | -4.22543 | 20354 ft | 331 kts | 297° |
| 2026-04-20 20:58 | 53.90340 | -4.26030 | 20358 ft | 330 kts | 297° |
| 2026-04-20 20:58 | 53.91365 | -4.29481 | 20349 ft | 330 kts | 297° |
| 2026-04-20 20:59 | 53.92394 | -4.32961 | 20352 ft | 331 kts | 296° |
| 2026-04-20 20:59 | 53.93427 | -4.36454 | 20341 ft | 332 kts | 296° |
| 2026-04-20 20:59 | 53.94465 | -4.39966 | 20342 ft | 331 kts | 296° |
| 2026-04-20 20:59 | 53.95497 | -4.43474 | 20339 ft | 332 kts | 296° |
| 2026-04-20 21:00 | 53.96520 | -4.46954 | 20331 ft | 332 kts | 296° |
| 2026-04-20 21:00 | 53.97556 | -4.50478 | 20326 ft | 333 kts | 296° |
| 2026-04-20 21:00 | 53.98591 | -4.54005 | 20327 ft | 333 kts | 296° |
| 2026-04-20 21:00 | 53.99621 | -4.57534 | 20335 ft | 332 kts | 296° |
| 2026-04-20 21:01 | 54.00651 | -4.61068 | 20307 ft | 331 kts | 296° |
| 2026-04-20 21:01 | 54.01653 | -4.64512 | 20051 ft | 326 kts | 296° |
| 2026-04-20 21:01 | 54.02655 | -4.67948 | 19798 ft | 321 kts | 296° |
| 2026-04-20 21:01 | 54.03646 | -4.71347 | 19557 ft | 318 kts | 296° |
| 2026-04-20 21:02 | 54.04616 | -4.74689 | 19248 ft | 314 kts | 296° |
| 2026-04-20 21:02 | 54.05580 | -4.78019 | 18878 ft | 312 kts | 296° |
| 2026-04-20 21:02 | 54.06528 | -4.81296 | 18502 ft | 311 kts | 296° |
| 2026-04-20 21:02 | 54.07480 | -4.84589 | 18103 ft | 309 kts | 296° |
| 2026-04-20 21:03 | 54.08427 | -4.87863 | 17734 ft | 306 kts | 296° |
| 2026-04-20 21:03 | 54.09365 | -4.91109 | 17372 ft | 304 kts | 296° |
| 2026-04-20 21:03 | 54.10291 | -4.94329 | 17020 ft | 302 kts | 296° |
| 2026-04-20 21:03 | 54.11204 | -4.97506 | 16674 ft | 300 kts | 296° |
| 2026-04-20 21:04 | 54.12121 | -5.00699 | 16324 ft | 299 kts | 296° |
| 2026-04-20 21:04 | 54.13034 | -5.03876 | 15978 ft | 298 kts | 296° |
| 2026-04-20 21:04 | 54.13947 | -5.07056 | 15637 ft | 297 kts | 296° |
| 2026-04-20 21:04 | 54.14853 | -5.10219 | 15298 ft | 297 kts | 295° |
| 2026-04-20 21:05 | 54.15757 | -5.13384 | 14957 ft | 296 kts | 295° |
| 2026-04-20 21:05 | 54.16658 | -5.16546 | 14612 ft | 296 kts | 295° |
| 2026-04-20 21:05 | 54.17562 | -5.19720 | 14267 ft | 297 kts | 295° |
| 2026-04-20 21:05 | 54.18456 | -5.22862 | 13903 ft | 297 kts | 295° |
| 2026-04-20 21:06 | 54.19354 | -5.26023 | 13542 ft | 295 kts | 295° |
| 2026-04-20 21:06 | 54.19951 | -5.28124 | 13307 ft | 295 kts | 295° |
| 2026-04-20 21:06 | 54.20843 | -5.31272 | 12965 ft | 293 kts | 295° |
| 2026-04-20 21:06 | 54.22021 | -5.35429 | 12489 ft | 292 kts | 295° |
| 2026-04-20 21:07 | 54.22617 | -5.37541 | 12251 ft | 291 kts | 295° |
| 2026-04-20 21:07 | 54.23486 | -5.40616 | 11901 ft | 290 kts | 295° |
| 2026-04-20 21:07 | 54.24360 | -5.43714 | 11545 ft | 289 kts | 295° |
| 2026-04-20 21:07 | 54.25229 | -5.46805 | 11181 ft | 288 kts | 295° |
| 2026-04-20 21:08 | 54.26095 | -5.49891 | 10819 ft | 287 kts | 295° |
| 2026-04-20 21:08 | 54.26958 | -5.52974 | 10454 ft | 286 kts | 295° |
| 2026-04-20 21:08 | 54.27819 | -5.56052 | 10056 ft | 286 kts | 295° |
| 2026-04-20 21:08 | 54.28667 | -5.59079 | 9675 ft | 284 kts | 295° |
| 2026-04-20 21:09 | 54.29520 | -5.62129 | 9283 ft | 282 kts | 295° |
| 2026-04-20 21:09 | 54.30366 | -5.65156 | 8893 ft | 280 kts | 295° |
| 2026-04-20 21:09 | 54.31207 | -5.68168 | 8509 ft | 279 kts | 295° |
| 2026-04-20 21:09 | 54.32042 | -5.71156 | 8125 ft | 277 kts | 295° |
| 2026-04-20 21:10 | 54.32863 | -5.74091 | 7742 ft | 276 kts | 295° |
| 2026-04-20 21:10 | 54.33690 | -5.77056 | 7332 ft | 275 kts | 294° |
| 2026-04-20 21:10 | 54.34512 | -5.80019 | 6984 ft | 275 kts | 294° |
| 2026-04-20 21:10 | 54.35321 | -5.82947 | 6726 ft | 268 kts | 294° |
| 2026-04-20 21:11 | 54.36113 | -5.85815 | 6464 ft | 261 kts | 295° |
| 2026-04-20 21:11 | 54.36873 | -5.88571 | 6200 ft | 256 kts | 295° |
| 2026-04-20 21:11 | 54.37627 | -5.91306 | 5939 ft | 250 kts | 295° |
| 2026-04-20 21:11 | 54.38362 | -5.93973 | 5678 ft | 245 kts | 295° |
| 2026-04-20 21:12 | 54.39083 | -5.96599 | 5419 ft | 240 kts | 295° |
| 2026-04-20 21:12 | 54.39782 | -5.99149 | 5162 ft | 236 kts | 295° |
| 2026-04-20 21:12 | 54.40485 | -6.01674 | 4882 ft | 232 kts | 298° |
| 2026-04-20 21:12 | 54.41499 | -6.03908 | 4306 ft | 241 kts | 321° |
| 2026-04-20 21:13 | 54.42905 | -6.05364 | 4093 ft | 231 kts | 342° |
| 2026-04-20 21:13 | 54.44412 | -6.05909 | 3921 ft | 220 kts | 1° |
| 2026-04-20 21:13 | 54.45897 | -6.05631 | 3711 ft | 210 kts | 20° |
| 2026-04-20 21:13 | 54.47194 | -6.04643 | 3461 ft | 199 kts | 37° |
| 2026-04-20 21:14 | 54.48315 | -6.03316 | 3191 ft | 192 kts | 39° |
| 2026-04-20 21:14 | 54.49403 | -6.02031 | 2936 ft | 187 kts | 39° |
| 2026-04-20 21:14 | 54.50458 | -6.00780 | 2680 ft | 180 kts | 39° |
| 2026-04-20 21:14 | 54.51451 | -5.99602 | 2443 ft | 172 kts | 39° |
| 2026-04-20 21:15 | 54.52416 | -5.98455 | 2211 ft | 165 kts | 39° |
| 2026-04-20 21:15 | 54.53350 | -5.97345 | 1984 ft | 160 kts | 39° |
| 2026-04-20 21:15 | 54.54246 | -5.96279 | 1768 ft | 149 kts | 39° |
| 2026-04-20 21:15 | 54.55053 | -5.95321 | 1564 ft | 134 kts | 39° |
| 2026-04-20 21:16 | 54.55800 | -5.94431 | 1382 ft | 127 kts | 39° |
| 2026-04-20 21:16 | 54.56514 | -5.93579 | 1204 ft | 125 kts | 39° |
| 2026-04-20 21:16 | 54.57231 | -5.92723 | 1028 ft | 125 kts | 37° |
| 2026-04-20 21:16 | 54.57946 | -5.91870 | 852 ft | 125 kts | 37° |
| 2026-04-20 21:17 | 54.58665 | -5.91012 | 676 ft | 125 kts | 36° |
| 2026-04-20 21:17 | 54.59375 | -5.90164 | 505 ft | 125 kts | 36° |
| 2026-04-20 21:17 | 54.60093 | -5.89306 | 335 ft | 124 kts | 36° |
| 2026-04-20 21:17 | 54.60811 | -5.88447 | 167 ft | 125 kts | 35° |
| 2026-04-20 21:18 | 54.61524 | -5.87591 | 19 ft | 118 kts | 34° |
| 2026-04-20 21:18 | 54.62055 | -5.86957 | 17 ft | 59 kts | 34° |
| 2026-04-20 21:18 | 54.62162 | -5.86832 | 17 ft | 1 kts | 120° |
| 2026-04-20 21:18 | 54.62131 | -5.86850 | 16 ft | 13 kts | 209° |
| 2026-04-20 21:19 | 54.62026 | -5.86990 | 17 ft | 21 kts | 220° |
| 2026-04-20 21:19 | 54.61904 | -5.87138 | 18 ft | 21 kts | 214° |
| 2026-04-20 21:19 | 54.61802 | -5.87092 | 18 ft | 17 kts | 126° |
| 2026-04-20 21:20 | 54.61634 | -5.87102 | 21 ft | 16 kts | 214° |
| 2026-04-20 21:20 | 54.61541 | -5.87211 | 21 ft | 17 kts | 214° |
| 2026-04-20 21:20 | 54.61450 | -5.87263 | 21 ft | 10 kts | 135° |
| 2026-04-20 21:20 | 54.61434 | -5.87223 | 21 ft | 2 kts | 124° |
| 2026-04-20 21:21 | 54.61432 | -5.87218 | 21 ft | 0 kts | 124° |